createdAt,value
2022-11-12T00:00:01.664Z,91.26
2022-11-12T00:01:01.612Z,91.56
2022-11-12T00:02:01.699Z,91.67
2022-11-12T00:03:01.617Z,91.77
2022-11-12T00:04:01.646Z,91.77
2022-11-12T00:05:01.584Z,91.98
2022-11-12T00:06:01.573Z,92.29
2022-11-12T00:07:01.614Z,92.40
2022-11-12T00:08:01.553Z,92.80
2022-11-12T00:09:01.525Z,92.95
2022-11-12T00:10:01.558Z,92.95
2022-11-12T00:11:01.509Z,93.05
2022-11-12T00:12:01.514Z,93.37
2022-11-12T00:13:01.485Z,93.68
2022-11-12T00:14:01.542Z,93.68
2022-11-12T00:15:01.453Z,93.68
2022-11-12T00:16:01.456Z,93.78
2022-11-12T00:17:01.446Z,93.98
2022-11-12T00:18:01.461Z,93.98
2022-11-12T00:19:01.693Z,93.78
2022-11-12T00:20:01.405Z,93.78
2022-11-12T00:21:01.407Z,93.78
2022-11-12T00:22:01.385Z,93.88
2022-11-12T00:23:01.426Z,93.88
2022-11-12T00:24:01.377Z,93.88
2022-11-12T00:25:01.355Z,94.09
2022-11-12T00:26:01.354Z,94.29
2022-11-12T00:27:01.313Z,94.29
2022-11-12T00:28:01.323Z,94.34
2022-11-12T00:29:01.305Z,94.34
2022-11-12T00:30:01.313Z,94.23
2022-11-12T00:31:01.294Z,94.13
2022-11-12T00:32:01.273Z,93.82
2022-11-12T00:33:01.262Z,93.72
2022-11-12T00:34:01.265Z,93.62
2022-11-12T00:35:02.775Z,93.62
2022-11-12T00:36:01.252Z,93.41
2022-11-12T00:37:01.233Z,93.45
2022-11-12T00:38:01.269Z,93.35
2022-11-12T00:39:01.194Z,93.35
2022-11-12T00:40:01.173Z,93.55
2022-11-12T00:41:01.183Z,93.87
2022-11-12T00:42:01.187Z,94.28
2022-11-12T00:43:01.148Z,94.59
2022-11-12T00:44:01.171Z,94.69
2022-11-12T00:45:01.141Z,95.00
2022-11-12T00:46:01.154Z,95.42
2022-11-12T00:47:01.106Z,95.73
2022-11-12T00:48:01.106Z,96.14
2022-11-12T00:49:01.074Z,96.66
2022-11-12T00:50:01.097Z,96.76
2022-11-12T00:51:01.053Z,96.66
2022-11-12T00:52:01.053Z,96.55
2022-11-12T00:53:01.042Z,96.55
2022-11-12T00:54:01.036Z,96.45
2022-11-12T00:55:01.015Z,96.45
2022-11-12T00:56:01.019Z,96.55
2022-11-12T00:57:01.014Z,96.86
2022-11-12T00:58:00.994Z,97.17
2022-11-12T00:59:00.984Z,97.49
2022-11-12T01:00:00.966Z,97.89
2022-11-12T01:01:01.005Z,98.41
2022-11-12T01:02:00.959Z,98.52
2022-11-12T01:03:00.934Z,98.41
2022-11-12T01:04:00.956Z,98.21
2022-11-12T01:05:00.940Z,98.00
2022-11-12T01:06:00.886Z,97.79
2022-11-12T01:07:00.946Z,97.79
2022-11-12T01:08:00.894Z,97.94
2022-11-12T01:09:00.866Z,97.94
2022-11-12T01:10:00.879Z,97.94
2022-11-12T01:11:00.872Z,97.84
2022-11-12T01:12:00.834Z,97.74
2022-11-12T01:13:00.815Z,97.53
2022-11-12T01:14:00.807Z,97.32
2022-11-12T01:15:00.787Z,97.01
2022-11-12T01:16:00.783Z,96.80
2022-11-12T01:17:00.775Z,96.59
2022-11-12T01:18:00.765Z,96.70
2022-11-12T01:19:00.743Z,96.91
2022-11-12T01:20:00.762Z,96.91
2022-11-12T01:21:00.735Z,96.80
2022-11-12T01:22:00.714Z,96.70
2022-11-12T01:23:00.675Z,96.59
2022-11-12T01:24:00.723Z,96.49
2022-11-12T01:25:00.662Z,96.59
2022-11-12T01:26:00.681Z,96.64
2022-11-12T01:27:00.654Z,96.49
2022-11-12T01:28:00.663Z,96.33
2022-11-12T01:29:00.625Z,96.12
2022-11-12T01:30:00.635Z,96.33
2022-11-12T01:31:00.627Z,96.54
2022-11-12T01:32:00.596Z,96.64
2022-11-12T01:33:00.583Z,96.54
2022-11-12T01:34:00.575Z,96.44
2022-11-12T01:35:00.586Z,96.23
2022-11-12T01:36:00.557Z,96.23
2022-11-12T01:37:00.558Z,96.23
2022-11-12T01:38:00.563Z,96.23
2022-11-12T01:39:00.539Z,96.23
2022-11-12T01:40:00.503Z,96.12
2022-11-12T01:41:00.629Z,95.92
2022-11-12T01:42:00.481Z,96.12
2022-11-12T01:43:00.521Z,96.23
2022-11-12T01:44:00.476Z,96.23
2022-11-12T01:45:00.459Z,96.33
2022-11-12T01:46:00.457Z,96.44
2022-11-12T01:47:00.456Z,96.44
2022-11-12T01:48:00.435Z,96.33
2022-11-12T01:49:00.396Z,96.37
2022-11-12T01:50:00.967Z,96.48
2022-11-12T01:51:00.403Z,96.69
2022-11-12T01:52:00.386Z,96.79
2022-11-12T01:53:00.345Z,96.89
2022-11-12T01:54:00.345Z,97.00
2022-11-12T01:55:00.338Z,97.00
2022-11-12T01:56:00.323Z,97.10
2022-11-12T01:57:00.325Z,97.20
2022-11-12T01:58:00.315Z,97.20
2022-11-12T01:59:00.301Z,97.20
2022-11-12T02:00:00.310Z,97.20
2022-11-12T02:01:00.310Z,97.10
2022-11-12T02:02:00.263Z,97.10
2022-11-12T02:03:00.264Z,97.20
2022-11-12T02:04:00.223Z,97.20
2022-11-12T02:05:00.221Z,97.25
2022-11-12T02:06:00.227Z,97.14
2022-11-12T02:07:00.500Z,97.14
2022-11-12T02:08:00.203Z,97.04
2022-11-12T02:09:00.163Z,97.04
2022-11-12T02:10:00.211Z,97.04
2022-11-12T02:11:00.154Z,97.04
2022-11-12T02:12:00.182Z,97.14
2022-11-12T02:13:00.143Z,97.14
2022-11-12T02:14:00.127Z,97.25
2022-11-12T02:15:00.122Z,97.35
2022-11-12T02:16:00.094Z,97.45
2022-11-12T02:17:00.093Z,97.56
2022-11-12T02:18:00.103Z,97.66
2022-11-12T02:19:00.064Z,97.97
2022-11-12T02:20:00.076Z,98.18
2022-11-12T02:21:00.072Z,98.28
2022-11-12T02:22:00.038Z,98.60
2022-11-12T02:23:00.066Z,98.80
2022-11-12T02:24:00.023Z,98.91
2022-11-12T02:25:00.046Z,99.22
2022-11-12T02:25:59.982Z,99.43
2022-11-12T02:26:59.983Z,99.52
2022-11-12T02:27:59.983Z,99.63
2022-11-12T02:29:00.002Z,99.63
2022-11-12T02:29:59.922Z,99.52
2022-11-12T02:30:59.985Z,99.52
2022-11-12T02:31:59.912Z,99.52
2022-11-12T02:32:59.926Z,99.52
2022-11-12T02:33:59.882Z,99.63
2022-11-12T02:34:59.905Z,99.73
2022-11-12T02:35:59.894Z,99.84
2022-11-12T02:36:59.881Z,99.94
2022-11-12T02:37:59.870Z,99.99
2022-11-12T02:38:59.844Z,99.99
2022-11-12T02:39:59.842Z,99.99
2022-11-12T02:40:59.835Z,99.99
2022-11-12T02:41:59.802Z,99.99
2022-11-12T02:42:59.826Z,99.99
2022-11-12T02:43:59.794Z,99.99
2022-11-12T02:44:59.791Z,99.99
2022-11-12T02:45:59.769Z,99.99
2022-11-12T02:46:59.751Z,99.99
2022-11-12T02:47:59.805Z,99.99
2022-11-12T02:48:59.722Z,99.99
2022-11-12T02:49:59.701Z,99.99
2022-11-12T02:50:59.711Z,99.99
2022-11-12T02:51:59.690Z,99.99
2022-11-12T02:52:59.695Z,99.99
2022-11-12T02:53:59.675Z,99.99
2022-11-12T02:54:59.699Z,99.99
2022-11-12T02:55:59.674Z,99.88
2022-11-12T02:56:59.638Z,99.88
2022-11-12T02:57:59.615Z,99.78
2022-11-12T02:58:59.642Z,99.68
2022-11-12T02:59:59.593Z,99.68
2022-11-12T03:00:59.655Z,99.47
2022-11-12T03:01:59.580Z,99.26
2022-11-12T03:02:59.582Z,99.16
2022-11-12T03:03:59.543Z,99.16
2022-11-12T03:04:59.564Z,99.05
2022-11-12T03:05:59.536Z,99.16
2022-11-12T03:06:59.574Z,99.16
2022-11-12T03:07:59.511Z,99.05
2022-11-12T03:08:59.491Z,99.05
2022-11-12T03:09:59.491Z,99.16
2022-11-12T03:10:59.498Z,99.16
2022-11-12T03:11:59.471Z,99.26
2022-11-12T03:12:59.459Z,99.37
2022-11-12T03:13:59.436Z,99.37
2022-11-12T03:14:59.480Z,99.47
2022-11-12T03:15:59.411Z,99.37
2022-11-12T03:16:59.443Z,99.37
2022-11-12T03:17:59.424Z,99.26
2022-11-12T03:18:59.403Z,99.16
2022-11-12T03:19:59.384Z,98.95
2022-11-12T03:20:59.391Z,98.74
2022-11-12T03:21:59.357Z,98.64
2022-11-12T03:22:59.343Z,98.54
2022-11-12T03:23:59.328Z,98.33
2022-11-12T03:24:59.324Z,98.22
2022-11-12T03:25:59.291Z,98.22
2022-11-12T03:26:59.347Z,98.22
2022-11-12T03:27:59.272Z,98.33
2022-11-12T03:28:59.295Z,98.74
2022-11-12T03:29:59.264Z,98.95
2022-11-12T03:30:59.288Z,98.85
2022-11-12T03:31:59.272Z,98.70
2022-11-12T03:32:59.239Z,98.49
2022-11-12T03:33:59.236Z,98.39
2022-11-12T03:34:59.226Z,98.28
2022-11-12T03:35:59.204Z,98.18
2022-11-12T03:36:59.240Z,98.08
2022-11-12T03:37:59.181Z,98.08
2022-11-12T03:38:59.165Z,97.97
2022-11-12T03:39:59.152Z,97.77
2022-11-12T03:40:59.154Z,97.66
2022-11-12T03:41:59.141Z,97.50
2022-11-12T03:42:59.159Z,97.50
2022-11-12T03:43:59.105Z,97.39
2022-11-12T03:44:59.092Z,97.50
2022-11-12T03:45:59.121Z,97.50
2022-11-12T03:46:59.076Z,97.60
2022-11-12T03:47:59.096Z,97.71
2022-11-12T03:48:59.048Z,97.86
2022-11-12T03:49:59.024Z,97.96
2022-11-12T03:50:59.046Z,98.17
2022-11-12T03:51:59.025Z,98.27
2022-11-12T03:52:59.020Z,98.38
2022-11-12T03:53:59.013Z,98.48
2022-11-12T03:54:58.993Z,98.58
2022-11-12T03:55:59.786Z,98.69
2022-11-12T03:56:58.975Z,98.69
2022-11-12T03:57:58.945Z,98.79
2022-11-12T03:58:58.932Z,98.90
2022-11-12T03:59:58.932Z,99.00
2022-11-12T04:00:59.025Z,99.00
2022-11-12T04:01:58.897Z,99.10
2022-11-12T04:02:58.885Z,99.10
2022-11-12T04:03:58.865Z,99.21
2022-11-12T04:04:58.924Z,99.21
2022-11-12T04:05:58.854Z,99.31
2022-11-12T04:06:58.878Z,99.31
2022-11-12T04:07:58.843Z,99.31
2022-11-12T04:08:58.820Z,99.31
2022-11-12T04:09:58.834Z,99.41
2022-11-12T04:10:58.809Z,99.52
2022-11-12T04:11:58.805Z,99.52
2022-11-12T04:12:58.786Z,99.62
2022-11-12T04:13:58.763Z,99.62
2022-11-12T04:14:58.761Z,99.62
2022-11-12T04:15:58.774Z,99.52
2022-11-12T04:16:58.973Z,99.62
2022-11-12T04:17:58.714Z,99.52
2022-11-12T04:18:58.713Z,99.52
2022-11-12T04:19:58.686Z,99.62
2022-11-12T04:20:58.694Z,99.72
2022-11-12T04:21:58.693Z,99.82
2022-11-12T04:22:58.674Z,99.93
2022-11-12T04:23:58.665Z,99.88
2022-11-12T04:24:58.641Z,99.88
2022-11-12T04:25:58.646Z,99.88
2022-11-12T04:26:58.646Z,99.78
2022-11-12T04:27:58.613Z,99.57
2022-11-12T04:28:58.606Z,99.37
2022-11-12T04:29:58.581Z,99.26
2022-11-12T04:30:58.586Z,99.05
2022-11-12T04:31:58.598Z,98.85
2022-11-12T04:32:58.551Z,98.79
2022-11-12T04:33:58.534Z,98.69
2022-11-12T04:34:58.557Z,98.58
2022-11-12T04:35:58.574Z,98.48
2022-11-12T04:36:58.506Z,98.48
2022-11-12T04:37:58.515Z,98.58
2022-11-12T04:38:58.505Z,98.58
2022-11-12T04:39:58.462Z,98.69
2022-11-12T04:40:58.482Z,98.79
2022-11-12T04:41:58.454Z,98.90
2022-11-12T04:42:58.462Z,99.00
2022-11-12T04:43:58.434Z,99.10
2022-11-12T04:44:58.418Z,99.21
2022-11-12T04:45:58.422Z,99.31
2022-11-12T04:46:58.414Z,99.31
2022-11-12T04:47:58.366Z,99.41
2022-11-12T04:48:58.373Z,99.41
2022-11-12T04:49:58.386Z,99.56
2022-11-12T04:50:58.393Z,99.56
2022-11-12T04:51:58.343Z,99.66
2022-11-12T04:52:58.347Z,99.77
2022-11-12T04:53:58.315Z,99.77
2022-11-12T04:54:58.325Z,99.77
2022-11-12T04:55:58.719Z,99.77
2022-11-12T04:56:58.294Z,99.77
2022-11-12T04:58:00.828Z,99.77
2022-11-12T04:58:58.267Z,99.77
2022-11-12T04:59:58.242Z,99.77
2022-11-12T05:00:58.306Z,99.87
2022-11-12T05:01:58.214Z,99.87
2022-11-12T05:02:58.246Z,99.87
2022-11-12T05:03:58.202Z,99.87
2022-11-12T05:04:58.198Z,99.87
2022-11-12T05:05:58.223Z,99.87
2022-11-12T05:06:58.249Z,99.87
2022-11-12T05:07:58.154Z,99.87
2022-11-12T05:08:58.150Z,99.87
2022-11-12T05:09:58.152Z,99.87
2022-11-12T05:10:58.163Z,99.87
2022-11-12T05:11:58.143Z,99.87
2022-11-12T05:12:58.101Z,99.98
2022-11-12T05:13:58.071Z,99.98
2022-11-12T05:14:58.090Z,99.98
2022-11-12T05:15:58.050Z,99.87
2022-11-12T05:16:58.088Z,99.87
2022-11-12T05:17:58.078Z,99.87
2022-11-12T05:18:58.030Z,99.87
2022-11-12T05:19:58.023Z,99.87
2022-11-12T05:20:58.007Z,99.77
2022-11-12T05:21:57.991Z,99.77
2022-11-12T05:23:07.079Z,99.77
2022-11-12T05:23:58.977Z,99.77
2022-11-12T05:24:57.964Z,99.77
2022-11-12T05:25:57.956Z,99.87
2022-11-12T05:26:57.963Z,99.98
2022-11-12T05:27:57.962Z,99.99
2022-11-12T05:28:57.931Z,99.99
2022-11-12T05:29:57.902Z,99.99
2022-11-12T05:30:57.918Z,99.99
2022-11-12T05:31:57.891Z,99.99
2022-11-12T05:32:57.885Z,99.99
2022-11-12T05:33:57.859Z,99.99
2022-11-12T05:34:57.867Z,99.99
2022-11-12T05:35:57.832Z,99.99
2022-11-12T05:36:57.854Z,99.99
2022-11-12T05:37:57.823Z,99.99
2022-11-12T05:38:57.803Z,99.99
2022-11-12T05:39:57.857Z,99.99
2022-11-12T05:40:57.782Z,99.99
2022-11-12T05:42:12.330Z,99.99
2022-11-12T05:42:58.757Z,99.99
2022-11-12T05:43:57.763Z,99.99
2022-11-12T05:44:57.753Z,99.99
2022-11-12T05:45:57.724Z,99.99
2022-11-12T05:46:57.733Z,99.99
2022-11-12T05:47:57.727Z,99.99
2022-11-12T05:48:57.692Z,99.99
2022-11-12T05:49:57.691Z,99.99
2022-11-12T05:51:12.405Z,99.99
2022-11-12T05:51:58.650Z,99.99
2022-11-12T05:52:57.658Z,99.99
2022-11-12T05:53:57.635Z,99.99
2022-11-12T05:54:57.656Z,99.99
2022-11-12T05:55:57.644Z,99.99
2022-11-12T05:56:57.610Z,99.99
2022-11-12T05:57:57.592Z,99.99
2022-11-12T05:58:57.583Z,99.99
2022-11-12T05:59:57.559Z,99.99
2022-11-12T06:00:57.592Z,99.99
2022-11-12T06:01:57.532Z,99.99
2022-11-12T06:02:57.561Z,99.99
2022-11-12T06:03:57.523Z,99.99
2022-11-12T06:04:57.747Z,99.99
2022-11-12T06:05:57.491Z,99.99
2022-11-12T06:06:57.747Z,99.99
2022-11-12T06:07:57.471Z,99.99
2022-11-12T06:08:57.459Z,99.99
2022-11-12T06:09:57.459Z,99.99
2022-11-12T06:10:57.459Z,99.99
2022-11-12T06:11:57.443Z,99.99
2022-11-12T06:12:57.430Z,99.99
2022-11-12T06:13:57.403Z,99.82
2022-11-12T06:14:57.395Z,99.41
2022-11-12T06:15:57.428Z,99.10
2022-11-12T06:16:57.383Z,98.79
2022-11-12T06:17:57.472Z,98.48
2022-11-12T06:18:57.388Z,98.38
2022-11-12T06:19:57.351Z,98.07
2022-11-12T06:20:57.334Z,97.86
2022-11-12T06:21:57.319Z,97.55
2022-11-12T06:22:57.343Z,97.39
2022-11-12T06:23:57.313Z,97.34
2022-11-12T06:24:57.328Z,97.19
2022-11-12T06:25:57.281Z,97.19
2022-11-12T06:26:57.282Z,97.34
2022-11-12T06:27:57.243Z,97.29
2022-11-12T06:28:57.247Z,97.44
2022-11-12T06:29:57.251Z,97.44
2022-11-12T06:30:57.219Z,97.44
2022-11-12T06:31:57.223Z,97.44
2022-11-12T06:32:57.203Z,97.55
2022-11-12T06:33:57.200Z,97.75
2022-11-12T06:34:57.179Z,97.96
2022-11-12T06:35:57.191Z,98.17
2022-11-12T06:36:57.151Z,98.48
2022-11-12T06:37:57.132Z,98.69
2022-11-12T06:38:57.131Z,98.90
2022-11-12T06:39:57.151Z,99.10
2022-11-12T06:40:57.111Z,99.31
2022-11-12T06:41:57.093Z,99.41
2022-11-12T06:42:57.071Z,99.41
2022-11-12T06:43:57.073Z,99.62
2022-11-12T06:44:57.061Z,99.72
2022-11-12T06:45:57.092Z,99.82
2022-11-12T06:46:57.170Z,99.93
2022-11-12T06:47:57.021Z,99.93
2022-11-12T06:48:57.031Z,99.99
2022-11-12T06:49:57.020Z,99.99
2022-11-12T06:50:57.004Z,99.99
2022-11-12T06:51:57.012Z,99.99
2022-11-12T06:52:56.972Z,99.99
2022-11-12T06:53:56.960Z,99.99
2022-11-12T06:54:56.953Z,99.99
2022-11-12T06:55:56.949Z,99.99
2022-11-12T06:56:56.940Z,99.99
2022-11-12T06:57:56.917Z,99.99
2022-11-12T06:58:56.922Z,99.99
2022-11-12T06:59:56.900Z,99.99
2022-11-12T07:00:56.913Z,99.99
2022-11-12T07:01:56.932Z,99.99
2022-11-12T07:02:56.892Z,99.99
2022-11-12T07:03:56.852Z,99.99
2022-11-12T07:04:56.830Z,99.99
2022-11-12T07:05:56.821Z,99.99
2022-11-12T07:06:56.850Z,99.99
2022-11-12T07:07:56.909Z,99.99
2022-11-12T07:08:56.837Z,99.99
2022-11-12T07:09:56.782Z,99.99
2022-11-12T07:10:56.792Z,99.99
2022-11-12T07:11:56.883Z,99.99
2022-11-12T07:12:56.780Z,99.99
2022-11-12T07:13:56.736Z,99.99
2022-11-12T07:14:56.709Z,99.99
2022-11-12T07:15:56.722Z,99.99
2022-11-12T07:16:56.710Z,99.99
2022-11-12T07:17:56.689Z,99.99
2022-11-12T07:18:56.669Z,99.99
2022-11-12T07:20:02.309Z,99.99
2022-11-12T07:20:57.668Z,99.99
2022-11-12T07:21:56.649Z,99.99
2022-11-12T07:22:56.646Z,99.99
2022-11-12T07:23:56.631Z,99.99
2022-11-12T07:24:56.630Z,99.99
2022-11-12T07:25:56.615Z,99.99
2022-11-12T07:26:56.581Z,99.99
2022-11-12T07:27:56.612Z,99.99
2022-11-12T07:28:56.590Z,99.99
2022-11-12T07:29:56.569Z,99.99
2022-11-12T07:30:56.813Z,99.99
2022-11-12T07:31:56.572Z,99.99
2022-11-12T07:32:56.508Z,99.99
2022-11-12T07:33:56.508Z,99.99
2022-11-12T07:34:56.489Z,99.99
2022-11-12T07:35:56.545Z,99.99
2022-11-12T07:36:56.477Z,99.99
2022-11-12T07:37:59.692Z,99.99
2022-11-12T07:38:56.467Z,99.99
2022-11-12T07:39:56.477Z,99.84
2022-11-12T07:40:56.442Z,99.63
2022-11-12T07:41:56.470Z,99.43
2022-11-12T07:42:56.402Z,99.38
2022-11-12T07:43:56.391Z,99.27
2022-11-12T07:44:56.424Z,99.27
2022-11-12T07:45:56.383Z,99.27
2022-11-12T07:46:56.358Z,99.27
2022-11-12T07:47:56.362Z,99.17
2022-11-12T07:48:56.345Z,99.07
2022-11-12T07:49:56.354Z,99.07
2022-11-12T07:50:56.318Z,98.96
2022-11-12T07:51:56.346Z,98.96
2022-11-12T07:52:56.287Z,98.96
2022-11-12T07:53:59.343Z,98.96
2022-11-12T07:54:56.285Z,98.96
2022-11-12T07:55:56.250Z,98.96
2022-11-12T07:56:56.242Z,98.86
2022-11-12T07:57:56.250Z,98.86
2022-11-12T07:58:56.210Z,98.86
2022-11-12T07:59:56.246Z,98.71
2022-11-12T08:00:56.210Z,98.40
2022-11-12T08:01:56.248Z,98.19
2022-11-12T08:02:56.190Z,97.99
2022-11-12T08:03:56.179Z,97.88
2022-11-12T08:04:56.182Z,97.99
2022-11-12T08:05:56.154Z,98.09
2022-11-12T08:06:56.246Z,98.09
2022-11-12T08:07:56.220Z,98.09
2022-11-12T08:08:56.130Z,97.94
2022-11-12T08:09:56.135Z,97.94
2022-11-12T08:10:56.112Z,97.94
2022-11-12T08:11:56.071Z,97.84
2022-11-12T08:12:56.090Z,97.74
2022-11-12T08:13:56.422Z,97.74
2022-11-12T08:14:56.043Z,97.63
2022-11-12T08:15:56.043Z,97.63
2022-11-12T08:16:56.027Z,97.53
2022-11-12T08:17:56.034Z,97.53
2022-11-12T08:18:55.998Z,97.49
2022-11-12T08:19:55.998Z,97.49
2022-11-12T08:20:55.971Z,97.38
2022-11-12T08:21:55.998Z,97.28
2022-11-12T08:22:55.952Z,97.17
2022-11-12T08:23:55.999Z,97.17
2022-11-12T08:24:55.924Z,97.07
2022-11-12T08:25:55.975Z,96.86
2022-11-12T08:26:55.910Z,96.97
2022-11-12T08:27:55.923Z,96.97
2022-11-12T08:28:55.899Z,97.07
2022-11-12T08:29:55.880Z,97.13
2022-11-12T08:30:55.860Z,97.23
2022-11-12T08:31:55.872Z,97.23
2022-11-12T08:32:55.839Z,97.23
2022-11-12T08:33:55.843Z,97.23
2022-11-12T08:34:55.821Z,97.33
2022-11-12T08:35:55.862Z,97.44
2022-11-12T08:36:55.791Z,97.39
2022-11-12T08:37:55.799Z,97.50
2022-11-12T08:38:55.780Z,97.50
2022-11-12T08:39:55.774Z,97.39
2022-11-12T08:40:55.751Z,97.39
2022-11-12T08:41:55.780Z,97.29
2022-11-12T08:42:55.739Z,97.19
2022-11-12T08:43:55.732Z,96.94
2022-11-12T08:44:55.720Z,96.83
2022-11-12T08:45:55.707Z,96.73
2022-11-12T08:46:55.672Z,96.73
2022-11-12T08:47:55.691Z,96.73
2022-11-12T08:48:55.672Z,96.94
2022-11-12T08:49:55.660Z,97.04
2022-11-12T08:50:55.675Z,96.99
2022-11-12T08:51:55.644Z,97.20
2022-11-12T08:52:55.600Z,97.30
2022-11-12T08:53:55.681Z,97.41
2022-11-12T08:54:55.593Z,97.41
2022-11-12T08:55:55.579Z,97.30
2022-11-12T08:56:55.591Z,97.30
2022-11-12T08:57:55.605Z,97.16
2022-11-12T08:58:55.540Z,97.05
2022-11-12T08:59:55.555Z,97.05
2022-11-12T09:00:55.551Z,97.36
2022-11-12T09:01:55.671Z,97.47
2022-11-12T09:02:55.541Z,97.47
2022-11-12T09:03:55.504Z,97.36
2022-11-12T09:04:55.472Z,97.21
2022-11-12T09:05:55.460Z,96.91
2022-11-12T09:06:55.514Z,96.80
2022-11-12T09:07:55.516Z,96.80
2022-11-12T09:08:55.428Z,96.70
2022-11-12T09:09:55.444Z,96.39
2022-11-12T09:10:55.433Z,96.24
2022-11-12T09:11:55.409Z,96.24
2022-11-12T09:12:55.401Z,96.24
2022-11-12T09:13:55.459Z,96.34
2022-11-12T09:14:59.547Z,96.34
2022-11-12T09:15:56.364Z,96.34
2022-11-12T09:16:55.336Z,96.34
2022-11-12T09:17:55.334Z,96.20
2022-11-12T09:18:55.333Z,96.20
2022-11-12T09:19:55.299Z,96.09
2022-11-12T09:20:55.305Z,95.99
2022-11-12T09:21:55.313Z,95.78
2022-11-12T09:22:55.281Z,95.68
2022-11-12T09:23:55.293Z,95.68
2022-11-12T09:24:55.281Z,95.58
2022-11-12T09:25:55.273Z,94.96
2022-11-12T09:26:55.235Z,94.96
2022-11-12T09:27:55.220Z,95.06
2022-11-12T09:28:55.200Z,95.17
2022-11-12T09:29:55.212Z,95.27
2022-11-12T09:30:55.180Z,95.37
2022-11-12T09:31:55.212Z,95.37
2022-11-12T09:32:55.161Z,95.37
2022-11-12T09:33:55.213Z,95.48
2022-11-12T09:34:55.165Z,95.58
2022-11-12T09:35:55.170Z,95.68
2022-11-12T09:36:55.109Z,95.64
2022-11-12T09:37:55.137Z,95.64
2022-11-12T09:38:55.113Z,95.64
2022-11-12T09:39:55.089Z,95.74
2022-11-12T09:40:55.102Z,95.59
2022-11-12T09:42:00.681Z,93.74
2022-11-12T09:42:56.048Z,93.23
2022-11-12T09:43:55.045Z,92.57
2022-11-12T09:44:55.102Z,91.44
2022-11-12T09:46:13.903Z,91.08
2022-11-12T09:46:56.033Z,91.45
2022-11-12T09:47:55.008Z,90.73
2022-11-12T09:48:54.976Z,90.38
2022-11-12T09:49:54.973Z,90.24
2022-11-12T09:50:54.973Z,89.83
2022-11-12T09:51:54.960Z,89.17
2022-11-12T09:52:54.941Z,88.45
2022-11-12T09:53:54.970Z,87.53
2022-11-12T09:54:54.913Z,87.02
2022-11-12T09:55:54.901Z,86.36
2022-11-12T09:56:54.902Z,86.05
2022-11-12T09:57:54.910Z,85.95
2022-11-12T09:58:54.871Z,85.64
2022-11-12T09:59:54.868Z,85.54
2022-11-12T10:00:54.866Z,85.85
2022-11-12T10:01:54.893Z,85.91
2022-11-12T10:02:54.832Z,85.50
2022-11-12T10:03:54.813Z,84.47
2022-11-12T10:04:54.825Z,84.68
2022-11-12T10:05:54.801Z,84.78
2022-11-12T10:06:54.850Z,84.68
2022-11-12T10:07:54.774Z,84.47
2022-11-12T10:08:54.750Z,84.68
2022-11-12T10:09:54.774Z,84.23
2022-11-12T10:10:54.727Z,84.33
2022-11-12T10:11:54.786Z,84.44
2022-11-12T10:12:54.743Z,84.64
2022-11-12T10:13:54.701Z,84.84
2022-11-12T10:14:54.710Z,85.15
2022-11-12T10:15:54.689Z,85.05
2022-11-12T10:16:54.679Z,84.95
2022-11-12T10:17:54.681Z,83.51
2022-11-12T10:18:54.633Z,82.79
2022-11-12T10:19:54.661Z,82.79
2022-11-12T10:20:54.621Z,82.49
2022-11-12T10:21:54.613Z,82.49
2022-11-12T10:22:54.593Z,82.79
2022-11-12T10:23:54.601Z,83.37
2022-11-12T10:24:54.585Z,83.78
2022-11-12T10:25:54.613Z,83.88
2022-11-12T10:26:54.565Z,83.17
2022-11-12T10:27:54.582Z,81.94
2022-11-12T10:28:54.567Z,81.84
2022-11-12T10:29:54.561Z,81.94
2022-11-12T10:30:54.600Z,82.00
2022-11-12T10:31:54.510Z,81.18
2022-11-12T10:32:54.495Z,79.96
2022-11-12T10:33:54.482Z,79.00
2022-11-12T10:34:54.482Z,79.10
2022-11-12T10:35:54.459Z,78.79
2022-11-12T10:36:55.569Z,78.17
2022-11-12T10:37:54.442Z,77.15
2022-11-12T10:38:54.447Z,76.30
2022-11-12T10:39:54.424Z,77.01
2022-11-12T10:40:54.385Z,77.83
2022-11-12T10:41:54.394Z,78.24
2022-11-12T10:42:54.543Z,78.65
2022-11-12T10:43:54.362Z,77.53
2022-11-12T10:44:54.344Z,77.59
2022-11-12T10:45:54.356Z,76.88
2022-11-12T10:46:54.355Z,77.59
2022-11-12T10:47:54.322Z,76.64
2022-11-12T10:48:54.302Z,76.33
2022-11-12T10:49:54.302Z,74.08
2022-11-12T10:50:54.276Z,75.00
2022-11-12T10:51:54.298Z,74.66
2022-11-12T10:52:54.266Z,75.17
2022-11-12T10:53:54.267Z,74.97
2022-11-12T10:54:55.274Z,74.83
2022-11-12T10:55:54.286Z,73.71
2022-11-12T10:56:55.608Z,74.11
2022-11-12T10:57:54.235Z,75.04
2022-11-12T10:58:54.182Z,73.47
2022-11-12T10:59:54.175Z,72.86
2022-11-12T11:00:54.163Z,72.55
2022-11-12T11:01:54.189Z,72.92
2022-11-12T11:02:54.162Z,73.33
2022-11-12T11:03:54.127Z,73.43
2022-11-12T11:04:54.126Z,73.74
2022-11-12T11:05:54.123Z,73.54
2022-11-12T11:06:54.181Z,70.14
2022-11-12T11:07:54.083Z,70.95
2022-11-12T11:08:54.076Z,71.67
2022-11-12T11:09:54.073Z,72.28
2022-11-12T11:10:54.074Z,72.17
2022-11-12T11:11:54.043Z,68.88
2022-11-12T11:12:54.046Z,69.09
2022-11-12T11:13:55.822Z,69.19
2022-11-12T11:14:54.013Z,66.00
2022-11-12T11:15:54.026Z,66.82
2022-11-12T11:16:53.966Z,65.89
2022-11-12T11:17:53.975Z,64.84
2022-11-12T11:18:53.994Z,66.38
2022-11-12T11:19:53.954Z,67.90
2022-11-12T11:20:53.946Z,65.86
2022-11-12T11:21:53.927Z,65.94
2022-11-12T11:22:54.114Z,65.43
2022-11-12T11:23:53.919Z,65.73
2022-11-12T11:24:53.885Z,67.66
2022-11-12T11:25:53.886Z,67.36
2022-11-12T11:26:53.898Z,68.14
2022-11-12T11:27:53.899Z,65.60
2022-11-12T11:28:53.875Z,66.00
2022-11-12T11:29:53.833Z,65.70
2022-11-12T11:30:53.935Z,66.11
2022-11-12T11:31:53.838Z,67.33
2022-11-12T11:32:53.818Z,67.10
2022-11-12T11:33:53.826Z,67.91
2022-11-12T11:34:53.766Z,67.80
2022-11-12T11:35:53.766Z,67.19
2022-11-12T11:36:53.761Z,67.80
2022-11-12T11:37:58.265Z,68.82
2022-11-12T11:38:53.869Z,69.13
2022-11-12T11:39:53.726Z,69.53
2022-11-12T11:40:53.806Z,69.13
2022-11-12T11:41:53.709Z,67.50
2022-11-12T11:42:53.798Z,68.41
2022-11-12T11:43:53.723Z,68.62
2022-11-12T11:44:53.667Z,69.53
2022-11-12T11:45:53.678Z,69.94
2022-11-12T11:46:53.670Z,68.32
2022-11-12T11:48:02.221Z,68.62
2022-11-12T11:48:54.631Z,68.62
2022-11-12T11:49:53.619Z,69.53
2022-11-12T11:50:53.591Z,69.91
2022-11-12T11:51:53.611Z,69.60
2022-11-12T11:52:53.570Z,69.20
2022-11-12T11:53:53.567Z,69.30
2022-11-12T11:54:53.561Z,69.40
2022-11-12T11:55:53.568Z,68.99
2022-11-12T11:56:53.568Z,69.40
2022-11-12T11:57:53.520Z,67.27
2022-11-12T11:58:53.520Z,66.66
2022-11-12T11:59:53.494Z,68.69
2022-11-12T12:00:53.480Z,69.30
2022-11-12T12:01:53.500Z,68.89
2022-11-12T12:02:53.468Z,68.99
2022-11-12T12:03:53.486Z,70.11
2022-11-12T12:04:53.452Z,69.50
2022-11-12T12:05:53.429Z,69.70
2022-11-12T12:06:53.457Z,69.50
2022-11-12T12:07:53.400Z,68.28
2022-11-12T12:08:53.400Z,69.81
2022-11-12T12:09:53.393Z,69.50
2022-11-12T12:11:07.553Z,69.81
2022-11-12T12:11:54.371Z,67.97
2022-11-12T12:12:53.362Z,68.99
2022-11-12T12:13:53.331Z,69.70
2022-11-12T12:14:53.346Z,68.79
2022-11-12T12:15:53.324Z,69.70
2022-11-12T12:16:53.322Z,70.31
2022-11-12T12:17:53.303Z,70.42
2022-11-12T12:18:53.284Z,70.82
2022-11-12T12:19:53.270Z,71.53
2022-11-12T12:20:53.274Z,71.33
2022-11-12T12:21:53.273Z,71.64
2022-11-12T12:22:53.250Z,72.45
2022-11-12T12:23:53.222Z,72.34
2022-11-12T12:24:53.219Z,71.64
2022-11-12T12:25:58.938Z,72.55
2022-11-12T12:26:54.274Z,73.26
2022-11-12T12:27:53.163Z,72.45
2022-11-12T12:28:53.182Z,71.94
2022-11-12T12:29:53.143Z,72.04
2022-11-12T12:30:53.151Z,71.43
2022-11-12T12:31:53.165Z,71.64
2022-11-12T12:32:53.130Z,71.23
2022-11-12T12:33:53.129Z,70.82
2022-11-12T12:34:53.103Z,71.03
2022-11-12T12:35:53.104Z,72.14
2022-11-12T12:36:53.095Z,71.43
2022-11-12T12:37:53.092Z,71.23
2022-11-12T12:38:53.063Z,71.43
2022-11-12T12:39:53.040Z,71.12
2022-11-12T12:40:53.034Z,71.12
2022-11-12T12:41:53.047Z,71.23
2022-11-12T12:42:53.051Z,71.94
2022-11-12T12:43:52.995Z,71.91
2022-11-12T12:44:52.996Z,71.50
2022-11-12T12:45:52.956Z,70.18
2022-11-12T12:46:52.956Z,68.86
2022-11-12T12:47:52.955Z,69.06
2022-11-12T12:48:52.955Z,67.84
2022-11-12T12:49:52.928Z,66.83
2022-11-12T12:50:52.947Z,67.24
2022-11-12T12:51:55.800Z,67.13